Time;durP1;ratioP1;P1;durP2;ratioP2;P2;SDS_P1;SDS_P2;PMS_P1;PMS_P2;Temp;Humidity;BMP_temperature;BMP_pressure;BME280_temperature;BME280_humidity;BME280_pressure;Samples;Min_cycle;Max_cycle;Signal;HPM_P1;HPM_P2
2022/03/05 00:00:06;;;;;;;99.60;40.05;;;;;;;;;;4774221;30;20055;-76
2022/03/05 00:02:58;;;;;;;114.35;45.40;;;;;;;;;;4778782;30;20047;-81
2022/03/05 00:05:56;;;;;;;138.32;50.03;;;;;;;;;;4772177;30;20048;-77
2022/03/05 00:08:44;;;;;;;77.85;32.88;;;;;;;;;;4765817;30;20047;-76
2022/03/05 00:11:30;;;;;;;51.83;25.38;;;;;;;;;;4773307;30;20056;-78
2022/03/05 00:14:16;;;;;;;55.72;23.98;;;;;;;;;;4772922;30;20047;-77
2022/03/05 00:17:03;;;;;;;55.90;24.17;;;;;;;;;;4777643;30;20063;-77
2022/03/05 00:19:48;;;;;;;54.90;25.08;;;;;;;;;;4772788;30;20491;-76
2022/03/05 00:22:34;;;;;;;47.28;23.02;;;;;;;;;;4772723;30;20048;-77
2022/03/05 00:25:23;;;;;;;43.38;21.77;;;;;;;;;;4771501;30;20060;-76
2022/03/05 00:28:10;;;;;;;49.13;20.65;;;;;;;;;;4771565;30;20490;-76
2022/03/05 00:30:58;;;;;;;48.67;20.98;;;;;;;;;;4770375;30;20047;-77
2022/03/05 00:33:43;;;;;;;41.17;21.05;;;;;;;;;;4770285;30;20048;-76
2022/03/05 00:36:30;;;;;;;42.38;22.05;;;;;;;;;;4770868;30;20406;-77
2022/03/05 00:39:16;;;;;;;34.35;17.95;;;;;;;;;;4771488;30;20044;-76
2022/03/05 00:42:01;;;;;;;34.60;18.35;;;;;;;;;;4771526;30;20410;-76
2022/03/05 00:44:47;;;;;;;39.28;19.27;;;;;;;;;;4772100;30;20040;-77
2022/03/05 00:47:36;;;;;;;35.83;18.23;;;;;;;;;;4772843;30;20514;-77
2022/03/05 00:50:21;;;;;;;32.45;17.10;;;;;;;;;;4773891;30;20044;-77
2022/03/05 00:53:07;;;;;;;38.72;17.73;;;;;;;;;;4772218;30;20395;-78
2022/03/05 00:55:52;;;;;;;45.95;17.63;;;;;;;;;;4772696;30;20055;-76
2022/03/05 00:58:37;;;;;;;37.97;19.60;;;;;;;;;;4771863;30;20047;-75
2022/03/05 01:01:22;;;;;;;45.75;22.48;;;;;;;;;;4772015;30;20060;-77
2022/03/05 01:04:08;;;;;;;64.22;29.02;;;;;;;;;;4771970;30;20486;-79
2022/03/05 01:06:53;;;;;;;89.95;37.40;;;;;;;;;;4771344;30;20059;-76
2022/03/05 01:09:38;;;;;;;91.00;37.75;;;;;;;;;;4771421;30;20052;-75
2022/03/05 01:12:24;;;;;;;88.35;35.72;;;;;;;;;;4771610;30;20051;-77
2022/03/05 01:15:10;;;;;;;75.93;31.63;;;;;;;;;;4772225;30;20052;-77
2022/03/05 01:17:55;;;;;;;57.83;25.17;;;;;;;;;;4776730;30;20047;-77
2022/03/05 01:20:40;;;;;;;51.63;25.48;;;;;;;;;;4785940;30;20048;-77
2022/03/05 01:23:26;;;;;;;52.63;24.83;;;;;;;;;;4783784;30;20055;-76
2022/03/05 01:26:13;;;;;;;48.25;24.23;;;;;;;;;;4777976;30;20043;-77
2022/03/05 01:28:58;;;;;;;64.15;32.05;;;;;;;;;;4772016;30;20498;-77
2022/03/05 01:31:44;;;;;;;69.25;27.13;;;;;;;;;;4771334;30;20044;-76
2022/03/05 01:34:33;;;;;;;63.92;29.40;;;;;;;;;;4771773;30;20402;-77
2022/03/05 01:37:19;;;;;;;81.30;34.42;;;;;;;;;;4772074;30;20051;-78
2022/03/05 01:40:06;;;;;;;58.40;26.35;;;;;;;;;;4771869;30;20056;-77
2022/03/05 01:42:51;;;;;;;73.72;29.98;;;;;;;;;;4771764;30;20052;-76
2022/03/05 01:45:38;;;;;;;65.53;27.98;;;;;;;;;;4771338;30;20482;-77
2022/03/05 01:48:24;;;;;;;61.75;29.23;;;;;;;;;;4771501;30;20494;-77
2022/03/05 01:51:11;;;;;;;59.90;27.25;;;;;;;;;;4760785;30;20068;-79
2022/03/05 01:53:56;;;;;;;59.38;29.15;;;;;;;;;;4776196;30;20056;-76
2022/03/05 01:56:43;;;;;;;62.50;27.40;;;;;;;;;;4771258;30;20406;-77
2022/03/05 01:59:29;;;;;;;56.70;26.63;;;;;;;;;;4777216;30;20051;-77
2022/03/05 02:02:15;;;;;;;64.30;26.58;;;;;;;;;;4770780;30;20052;-78
2022/03/05 02:05:01;;;;;;;51.58;25.38;;;;;;;;;;4771081;30;20052;-77
2022/03/05 02:07:47;;;;;;;61.83;27.38;;;;;;;;;;4771005;30;20490;-75
2022/03/05 02:10:32;;;;;;;58.80;28.25;;;;;;;;;;4770919;30;20044;-78
2022/03/05 02:13:21;;;;;;;76.13;36.33;;;;;;;;;;4770954;30;20414;-78
2022/03/05 02:16:07;;;;;;;75.53;35.22;;;;;;;;;;4770892;30;20048;-76
2022/03/05 02:18:57;;;;;;;72.10;32.35;;;;;;;;;;4771161;30;20104;-79
2022/03/05 02:21:46;;;;;;;67.47;32.88;;;;;;;;;;4769821;30;20052;-78
2022/03/05 02:24:32;;;;;;;72.60;32.40;;;;;;;;;;4771854;30;20056;-77
2022/03/05 02:27:25;;;;;;;67.25;33.08;;;;;;;;;;4771059;30;20052;-76
2022/03/05 02:30:12;;;;;;;66.35;32.35;;;;;;;;;;4776272;30;20055;-78
2022/03/05 02:32:57;;;;;;;65.03;32.15;;;;;;;;;;4771197;30;20048;-77
2022/03/05 02:35:44;;;;;;;64.35;31.13;;;;;;;;;;4771110;30;20052;-77
2022/03/05 02:38:31;;;;;;;66.65;29.95;;;;;;;;;;4775853;30;20048;-78
2022/03/05 02:41:18;;;;;;;65.20;29.52;;;;;;;;;;4771887;30;20056;-78
2022/03/05 02:44:04;;;;;;;78.60;33.40;;;;;;;;;;4770903;30;20052;-77
2022/03/05 02:46:50;;;;;;;73.57;32.55;;;;;;;;;;4770688;30;20055;-77
2022/03/05 02:49:36;;;;;;;72.68;31.40;;;;;;;;;;4770644;30;20048;-77
2022/03/05 02:52:21;;;;;;;67.47;32.60;;;;;;;;;;4770240;30;20052;-76
2022/03/05 02:55:07;;;;;;;77.75;34.38;;;;;;;;;;4770746;30;20047;-76
2022/03/05 02:57:53;;;;;;;67.90;33.17;;;;;;;;;;4770304;30;20351;-77
2022/03/05 03:00:39;;;;;;;70.57;34.08;;;;;;;;;;4770605;30;20052;-77
2022/03/05 03:03:24;;;;;;;74.18;35.10;;;;;;;;;;4770448;30;20051;-77
2022/03/05 03:06:09;;;;;;;84.53;35.38;;;;;;;;;;4770535;30;20402;-77
2022/03/05 03:08:55;;;;;;;78.05;35.58;;;;;;;;;;4770363;30;20055;-78
2022/03/05 03:11:40;;;;;;;83.75;37.05;;;;;;;;;;4779263;30;20047;-78
2022/03/05 03:14:25;;;;;;;76.63;35.17;;;;;;;;;;4770667;30;20056;-76
2022/03/05 03:17:11;;;;;;;72.20;32.63;;;;;;;;;;4770720;30;20402;-78
2022/03/05 03:19:56;;;;;;;68.38;32.72;;;;;;;;;;4770820;30;20052;-79
2022/03/05 03:22:44;;;;;;;68.43;32.95;;;;;;;;;;4770341;30;20403;-79
2022/03/05 03:25:29;;;;;;;75.85;34.80;;;;;;;;;;4770263;30;20447;-79
2022/03/05 03:28:14;;;;;;;87.07;36.53;;;;;;;;;;4770218;30;20048;-79
2022/03/05 03:31:00;;;;;;;79.35;37.10;;;;;;;;;;4770332;30;20043;-80
2022/03/05 03:33:45;;;;;;;91.95;37.40;;;;;;;;;;4772902;30;20055;-80
2022/03/05 03:36:31;;;;;;;82.72;38.65;;;;;;;;;;4773941;30;20052;-79
2022/03/05 03:39:16;;;;;;;76.70;35.63;;;;;;;;;;4790678;30;20040;-79
2022/03/05 03:42:02;;;;;;;69.70;32.40;;;;;;;;;;4784377;30;20047;-78
2022/03/05 03:44:48;;;;;;;62.08;29.33;;;;;;;;;;4774223;30;20047;-79
2022/03/05 03:47:33;;;;;;;53.85;28.08;;;;;;;;;;4773722;30;20467;-79
2022/03/05 03:50:21;;;;;;;71.50;34.17;;;;;;;;;;4773227;30;20410;-79
2022/03/05 03:53:06;;;;;;;66.00;31.52;;;;;;;;;;4773196;30;20052;-79
2022/03/05 03:55:52;;;;;;;60.35;31.13;;;;;;;;;;4779260;30;20044;-78
2022/03/05 03:58:37;;;;;;;56.28;29.83;;;;;;;;;;4775696;30;20056;-79
2022/03/05 04:01:23;;;;;;;62.28;31.17;;;;;;;;;;4773625;30;20490;-79
2022/03/05 04:04:09;;;;;;;65.88;30.33;;;;;;;;;;4773467;30;20051;-79
2022/03/05 04:09:58;;;;;;;68.22;32.78;;;;;;;;;;4772963;30;20052;-79
2022/03/05 04:12:43;;;;;;;72.78;33.25;;;;;;;;;;4772919;30;20043;-79
2022/03/05 04:15:29;;;;;;;62.30;31.23;;;;;;;;;;4773463;30;20047;-80
2022/03/05 04:18:15;;;;;;;80.20;36.08;;;;;;;;;;4772980;30;20047;-79
2022/03/05 04:21:01;;;;;;;77.95;34.63;;;;;;;;;;4778552;30;20483;-79
2022/03/05 04:23:47;;;;;;;79.10;36.00;;;;;;;;;;4777659;30;20047;-79
2022/03/05 04:26:32;;;;;;;79.85;34.90;;;;;;;;;;4773022;30;20467;-79
2022/03/05 04:29:18;;;;;;;82.88;36.05;;;;;;;;;;4778890;30;20047;-78
2022/03/05 04:32:05;;;;;;;82.07;36.13;;;;;;;;;;4772912;30;20048;-79
2022/03/05 04:34:50;;;;;;;82.28;36.45;;;;;;;;;;4772260;30;20051;-79
2022/03/05 04:37:37;;;;;;;86.75;39.08;;;;;;;;;;4772549;30;20051;-79
2022/03/05 04:40:22;;;;;;;90.97;38.75;;;;;;;;;;4772411;30;20048;-78
2022/03/05 04:43:08;;;;;;;82.25;36.20;;;;;;;;;;4778115;30;20060;-78
2022/03/05 04:45:53;;;;;;;88.25;36.60;;;;;;;;;;4776067;30;20052;-80
2022/03/05 04:48:39;;;;;;;78.35;35.15;;;;;;;;;;4772506;30;20051;-80
2022/03/05 04:51:25;;;;;;;75.25;33.92;;;;;;;;;;4772158;30;20487;-80
2022/03/05 04:54:10;;;;;;;74.22;36.15;;;;;;;;;;4772182;30;20059;-80
2022/03/05 04:56:57;;;;;;;72.18;31.35;;;;;;;;;;4772314;30;20052;-80
2022/03/05 04:59:42;;;;;;;67.60;30.55;;;;;;;;;;4772206;30;20051;-78
2022/03/05 05:02:28;;;;;;;79.30;33.95;;;;;;;;;;4771888;30;20047;-80
2022/03/05 05:05:13;;;;;;;106.05;44.78;;;;;;;;;;4777897;30;20056;-80
2022/03/05 05:07:59;;;;;;;107.25;44.72;;;;;;;;;;4772127;30;20494;-79
2022/03/05 05:10:45;;;;;;;93.22;39.28;;;;;;;;;;4771780;30;20044;-80
2022/03/05 05:13:32;;;;;;;80.50;36.22;;;;;;;;;;4772058;30;20406;-80
2022/03/05 05:16:18;;;;;;;71.22;34.95;;;;;;;;;;4771644;30;20051;-80
2022/03/05 05:22:08;;;;;;;77.40;34.00;;;;;;;;;;4771849;30;20047;-80
2022/03/05 05:24:52;;;;;;;66.38;32.50;;;;;;;;;;4777499;30;20398;-80
2022/03/05 05:27:39;;;;;;;91.93;38.15;;;;;;;;;;4771969;30;20055;-80
2022/03/05 05:30:24;;;;;;;105.25;43.92;;;;;;;;;;4771310;30;20436;-79
2022/03/05 05:33:10;;;;;;;115.55;49.92;;;;;;;;;;4776530;30;20383;-79
2022/03/05 05:35:56;;;;;;;106.78;45.75;;;;;;;;;;4771833;30;20044;-79
2022/03/05 05:38:41;;;;;;;108.10;42.95;;;;;;;;;;4771653;30;20060;-77
2022/03/05 05:41:27;;;;;;;99.30;41.85;;;;;;;;;;4772020;30;20051;-79
2022/03/05 05:44:13;;;;;;;97.28;42.25;;;;;;;;;;4774065;30;20063;-80
2022/03/05 05:46:58;;;;;;;107.28;46.90;;;;;;;;;;4773037;30;20487;-80
2022/03/05 05:49:44;;;;;;;95.03;44.38;;;;;;;;;;4770815;30;20047;-78
2022/03/05 05:52:29;;;;;;;125.43;50.88;;;;;;;;;;4771028;30;20418;-77
2022/03/05 05:55:15;;;;;;;128.65;52.65;;;;;;;;;;4792047;29;20055;-78
2022/03/05 05:58:01;;;;;;;109.93;45.47;;;;;;;;;;4778384;30;20039;-79
2022/03/05 06:00:47;;;;;;;82.55;39.78;;;;;;;;;;4772214;30;20051;-79
2022/03/05 06:03:32;;;;;;;76.15;37.47;;;;;;;;;;4771188;30;20051;-77
2022/03/05 06:06:18;;;;;;;81.00;37.38;;;;;;;;;;4770641;30;20060;-78
2022/03/05 06:09:03;;;;;;;76.97;38.22;;;;;;;;;;4775810;30;20055;-79
2022/03/05 06:11:49;;;;;;;86.82;41.33;;;;;;;;;;4776762;30;20048;-78
2022/03/05 06:14:35;;;;;;;93.63;46.60;;;;;;;;;;4770945;30;20048;-80
2022/03/05 06:17:21;;;;;;;110.18;50.78;;;;;;;;;;4770646;30;20059;-79
2022/03/05 06:20:07;;;;;;;104.70;46.45;;;;;;;;;;4773862;30;20055;-79
2022/03/05 06:22:52;;;;;;;117.72;44.53;;;;;;;;;;4770666;30;20044;-78
2022/03/05 06:25:37;;;;;;;134.05;59.50;;;;;;;;;;4771166;30;20044;-79
2022/03/05 06:28:23;;;;;;;138.75;61.72;;;;;;;;;;4776159;30;20060;-79
2022/03/05 06:31:09;;;;;;;122.50;51.00;;;;;;;;;;4770543;30;20055;-79
2022/03/05 06:33:54;;;;;;;70.90;32.47;;;;;;;;;;4770633;30;20051;-79
2022/03/05 06:36:40;;;;;;;75.68;37.67;;;;;;;;;;4770624;30;20513;-78
2022/03/05 06:39:25;;;;;;;71.47;28.88;;;;;;;;;;4770441;30;20048;-78
2022/03/05 06:42:11;;;;;;;67.07;33.33;;;;;;;;;;4770389;30;20044;-78
2022/03/05 06:44:56;;;;;;;84.47;36.28;;;;;;;;;;4776885;30;20475;-78
2022/03/05 06:47:42;;;;;;;72.85;35.80;;;;;;;;;;4770702;30;20431;-78
2022/03/05 06:50:28;;;;;;;74.20;36.22;;;;;;;;;;4770363;30;20064;-78
2022/03/05 06:53:13;;;;;;;70.47;35.13;;;;;;;;;;4770612;30;20047;-77
2022/03/05 06:55:59;;;;;;;66.22;34.17;;;;;;;;;;4770470;30;20051;-78
2022/03/05 06:58:44;;;;;;;74.40;34.95;;;;;;;;;;4770524;30;20043;-77
2022/03/05 07:01:30;;;;;;;73.40;34.20;;;;;;;;;;4769344;30;20060;-78
2022/03/05 07:04:14;;;;;;;105.55;45.80;;;;;;;;;;4774082;30;20048;-78
2022/03/05 07:07:00;;;;;;;82.57;40.45;;;;;;;;;;4771757;30;20051;-78
2022/03/05 07:09:46;;;;;;;78.60;39.70;;;;;;;;;;4773633;30;20047;-78
2022/03/05 07:12:32;;;;;;;97.03;43.22;;;;;;;;;;4779637;30;20056;-78
2022/03/05 07:15:20;;;;;;;96.97;42.00;;;;;;;;;;4773860;30;20052;-79
2022/03/05 07:18:04;;;;;;;67.90;32.53;;;;;;;;;;4775478;30;20055;-77
2022/03/05 07:20:50;;;;;;;76.65;37.53;;;;;;;;;;4773917;30;20056;-77
2022/03/05 07:23:36;;;;;;;71.97;34.17;;;;;;;;;;4773862;30;20051;-77
2022/03/05 07:26:21;;;;;;;211.27;116.72;;;;;;;;;;4773610;30;20056;-77
2022/03/05 07:29:07;;;;;;;95.22;43.88;;;;;;;;;;4780043;30;20051;-78
2022/03/05 07:31:53;;;;;;;102.95;45.38;;;;;;;;;;4774199;30;20403;-77
2022/03/05 07:34:38;;;;;;;191.32;94.30;;;;;;;;;;4773742;30;20052;-77
2022/03/05 07:37:23;;;;;;;102.22;56.33;;;;;;;;;;4773391;30;20047;-77
2022/03/05 07:40:09;;;;;;;62.80;32.53;;;;;;;;;;4773848;30;20056;-78
2022/03/05 07:42:55;;;;;;;59.00;31.70;;;;;;;;;;4772990;30;20051;-78
2022/03/05 07:45:40;;;;;;;46.25;24.77;;;;;;;;;;4779382;30;20055;-78
2022/03/05 07:48:26;;;;;;;47.80;23.95;;;;;;;;;;4772999;30;20059;-78
2022/03/05 07:51:12;;;;;;;39.13;19.75;;;;;;;;;;4764545;30;20055;-79
2022/03/05 07:53:58;;;;;;;45.35;24.08;;;;;;;;;;4773735;30;20048;-77
2022/03/05 07:56:44;;;;;;;53.47;27.52;;;;;;;;;;4773174;30;20055;-80
2022/03/05 07:59:29;;;;;;;59.25;29.25;;;;;;;;;;4773237;30;20051;-79
2022/03/05 08:02:15;;;;;;;55.40;28.33;;;;;;;;;;4773451;30;20052;-78
2022/03/05 08:05:01;;;;;;;53.22;28.17;;;;;;;;;;4778671;30;20060;-79
2022/03/05 08:07:47;;;;;;;51.70;27.10;;;;;;;;;;4787598;29;20035;-79
2022/03/05 08:10:33;;;;;;;43.40;24.45;;;;;;;;;;4790904;29;20505;-79
2022/03/05 08:13:18;;;;;;;47.05;22.88;;;;;;;;;;4773661;30;20051;-79
2022/03/05 08:16:04;;;;;;;53.45;27.63;;;;;;;;;;4772997;30;20056;-78
2022/03/05 08:18:50;;;;;;;51.95;27.48;;;;;;;;;;4771596;30;20055;-78
2022/03/05 08:21:36;;;;;;;44.58;23.55;;;;;;;;;;4772651;30;20052;-78
2022/03/05 08:24:21;;;;;;;51.63;26.73;;;;;;;;;;4772635;30;20047;-79
2022/03/05 08:27:07;;;;;;;52.90;27.48;;;;;;;;;;4772625;30;20418;-79
2022/03/05 08:29:53;;;;;;;57.30;27.73;;;;;;;;;;4772611;30;20402;-78
2022/03/05 08:32:38;;;;;;;61.17;29.85;;;;;;;;;;4772379;30;20040;-79
2022/03/05 08:35:24;;;;;;;61.17;28.17;;;;;;;;;;4772239;30;20047;-79
2022/03/05 08:38:10;;;;;;;20.73;11.60;;;;;;;;;;4778288;30;20048;-77
2022/03/05 08:40:55;;;;;;;192.98;76.47;;;;;;;;;;4772384;30;20410;-79
2022/03/05 08:43:42;;;;;;;60.88;29.63;;;;;;;;;;4772225;30;20052;-78
2022/03/05 08:46:27;;;;;;;40.95;22.95;;;;;;;;;;4772328;30;20055;-79
2022/03/05 08:49:14;;;;;;;33.72;19.08;;;;;;;;;;4772262;30;20056;-78
2022/03/05 08:52:00;;;;;;;38.92;21.67;;;;;;;;;;4772000;30;20499;-78
2022/03/05 08:54:45;;;;;;;41.13;22.00;;;;;;;;;;4771956;30;20052;-78
2022/03/05 08:57:30;;;;;;;35.47;16.40;;;;;;;;;;4772047;30;20060;-78
2022/03/05 09:00:16;;;;;;;38.28;21.10;;;;;;;;;;4771898;30;20048;-77
2022/03/05 09:03:02;;;;;;;53.60;24.15;;;;;;;;;;4772104;30;20048;-78
2022/03/05 09:05:47;;;;;;;48.25;24.65;;;;;;;;;;4771657;30;20043;-77
2022/03/05 09:08:33;;;;;;;44.50;25.40;;;;;;;;;;4770631;30;20415;-77
2022/03/05 09:11:19;;;;;;;43.25;24.05;;;;;;;;;;4771678;30;20047;-78
2022/03/05 09:14:06;;;;;;;49.83;23.55;;;;;;;;;;4771607;30;20055;-78
2022/03/05 09:16:51;;;;;;;45.85;24.25;;;;;;;;;;4770832;30;20060;-79
2022/03/05 09:19:37;;;;;;;42.03;23.25;;;;;;;;;;4771993;30;20055;-78
2022/03/05 09:22:23;;;;;;;45.78;21.95;;;;;;;;;;4773202;30;20044;-79
2022/03/05 09:25:10;;;;;;;48.75;25.27;;;;;;;;;;4776027;30;20052;-78
2022/03/05 09:27:56;;;;;;;37.17;20.25;;;;;;;;;;4776379;30;20051;-78
2022/03/05 09:30:42;;;;;;;31.35;14.55;;;;;;;;;;4770762;30;20055;-79
2022/03/05 09:33:27;;;;;;;55.95;30.00;;;;;;;;;;4771092;30;20032;-80
2022/03/05 09:36:15;;;;;;;47.10;21.45;;;;;;;;;;4773034;30;20055;-80
2022/03/05 09:39:00;;;;;;;45.95;25.00;;;;;;;;;;4775755;30;20056;-80
2022/03/05 09:41:46;;;;;;;44.67;22.65;;;;;;;;;;4771552;30;20059;-82
2022/03/05 09:44:32;;;;;;;44.42;24.38;;;;;;;;;;4775787;30;20044;-82
2022/03/05 09:47:20;;;;;;;48.40;26.52;;;;;;;;;;4777317;30;20044;-90
2022/03/05 09:50:08;;;;;;;51.70;24.90;;;;;;;;;;4772648;30;20047;-84
2022/03/05 09:52:55;;;;;;;38.47;21.33;;;;;;;;;;4772404;30;20052;-82
2022/03/05 09:55:41;;;;;;;43.80;23.02;;;;;;;;;;4784620;30;20059;-83
2022/03/05 09:58:28;;;;;;;57.03;30.83;;;;;;;;;;4782941;30;20056;-83
2022/03/05 10:01:14;;;;;;;48.22;24.58;;;;;;;;;;4784907;30;20040;-82
2022/03/05 10:04:02;;;;;;;53.25;24.23;;;;;;;;;;4779798;30;20052;-84
2022/03/05 10:07:06;;;;;;;43.92;20.63;;;;;;;;;;4781024;30;20108;-83
2022/03/05 10:10:07;;;;;;;36.33;18.23;;;;;;;;;;4786704;30;20052;-82
2022/03/05 10:12:53;;;;;;;60.60;28.38;;;;;;;;;;4776774;30;20055;-82
2022/03/05 10:15:38;;;;;;;36.85;19.73;;;;;;;;;;4779462;30;20051;-82
2022/03/05 10:18:35;;;;;;;34.90;15.60;;;;;;;;;;4776166;30;20048;-83
2022/03/05 10:21:30;;;;;;;41.65;20.67;;;;;;;;;;4792426;29;20059;-84
2022/03/05 10:24:18;;;;;;;41.00;22.95;;;;;;;;;;4794222;29;20059;-80
2022/03/05 10:27:05;;;;;;;41.92;21.33;;;;;;;;;;4770424;30;20047;-77
2022/03/05 10:29:56;;;;;;;34.95;19.27;;;;;;;;;;4776709;30;20421;-77
2022/03/05 10:32:41;;;;;;;32.25;17.33;;;;;;;;;;4770495;30;20051;-77
2022/03/05 10:35:27;;;;;;;32.05;18.25;;;;;;;;;;4773720;30;20048;-82
2022/03/05 10:38:12;;;;;;;39.60;20.40;;;;;;;;;;4776321;30;20059;-81
2022/03/05 10:40:57;;;;;;;36.83;19.77;;;;;;;;;;4771380;30;20056;-81
2022/03/05 10:43:45;;;;;;;31.42;17.88;;;;;;;;;;4773830;30;20052;-81
2022/03/05 10:46:37;;;;;;;22.02;11.52;;;;;;;;;;4775007;30;20055;-81
2022/03/05 10:49:35;;;;;;;30.85;16.50;;;;;;;;;;4778797;30;20056;-87
2022/03/05 10:52:20;;;;;;;28.67;17.35;;;;;;;;;;4775432;30;20052;-79
2022/03/05 10:55:18;;;;;;;32.03;17.45;;;;;;;;;;4781154;30;20051;-78
2022/03/05 10:58:17;;;;;;;31.23;17.17;;;;;;;;;;4776957;30;20055;-81
2022/03/05 11:01:02;;;;;;;29.20;16.60;;;;;;;;;;4773707;30;20051;-79
2022/03/05 11:03:49;;;;;;;33.20;16.83;;;;;;;;;;4772577;30;20051;-79
2022/03/05 11:06:37;;;;;;;30.23;15.68;;;;;;;;;;4771568;30;20052;-81
2022/03/05 11:09:23;;;;;;;28.90;16.05;;;;;;;;;;4773107;30;20060;-81
2022/03/05 11:12:14;;;;;;;28.23;16.25;;;;;;;;;;4773790;30;20048;-81
2022/03/05 11:15:00;;;;;;;31.40;18.42;;;;;;;;;;4773544;30;20051;-81
2022/03/05 11:17:49;;;;;;;36.78;17.77;;;;;;;;;;4773779;30;20051;-81
2022/03/05 11:20:35;;;;;;;38.20;19.58;;;;;;;;;;4778760;30;20044;-81
2022/03/05 11:23:22;;;;;;;42.17;23.15;;;;;;;;;;4777004;30;20048;-79
2022/03/05 11:26:08;;;;;;;53.78;21.10;;;;;;;;;;4773713;30;20051;-79
2022/03/05 11:28:55;;;;;;;28.85;15.80;;;;;;;;;;4779586;30;20048;-79
2022/03/05 11:31:40;;;;;;;38.45;19.77;;;;;;;;;;4774297;30;20056;-80
2022/03/05 11:34:26;;;;;;;31.38;14.93;;;;;;;;;;4773987;30;20044;-80
2022/03/05 11:37:34;;;;;;;27.38;16.65;;;;;;;;;;4773800;30;20060;-80
2022/03/05 11:40:42;;;;;;;26.35;14.73;;;;;;;;;;4775054;30;20499;-78
2022/03/05 11:43:27;;;;;;;37.38;18.67;;;;;;;;;;4774076;30;20043;-78
2022/03/05 11:46:27;;;;;;;28.40;14.77;;;;;;;;;;4774499;30;20048;-78
2022/03/05 11:49:14;;;;;;;42.03;23.38;;;;;;;;;;4773692;30;20051;-78
2022/03/05 11:52:00;;;;;;;24.73;14.90;;;;;;;;;;4772529;30;20055;-77
2022/03/05 11:55:10;;;;;;;31.58;15.60;;;;;;;;;;4775137;30;20067;-80
2022/03/05 11:57:57;;;;;;;25.92;14.48;;;;;;;;;;4778271;30;20059;-81
2022/03/05 12:00:44;;;;;;;60.90;28.67;;;;;;;;;;4773523;30;20068;-80
2022/03/05 12:03:42;;;;;;;30.83;15.95;;;;;;;;;;4772644;30;20051;-81
2022/03/05 12:06:27;;;;;;;51.00;24.73;;;;;;;;;;4772971;30;20056;-79
2022/03/05 12:09:38;;;;;;;33.10;19.08;;;;;;;;;;4772907;30;20051;-79
2022/03/05 12:12:23;;;;;;;62.85;27.00;;;;;;;;;;4772552;30;20470;-80
2022/03/05 12:15:09;;;;;;;87.07;37.60;;;;;;;;;;4772593;30;20059;-80
2022/03/05 12:17:55;;;;;;;32.65;17.67;;;;;;;;;;4772526;30;20490;-79
2022/03/05 12:20:46;;;;;;;41.97;22.17;;;;;;;;;;4773226;30;20056;-80
2022/03/05 12:23:32;;;;;;;48.38;23.20;;;;;;;;;;4773002;30;20060;-81
2022/03/05 12:26:22;;;;;;;32.40;15.75;;;;;;;;;;4773347;30;20052;-79
2022/03/05 12:29:08;;;;;;;41.90;21.77;;;;;;;;;;4776484;30;20056;-80
2022/03/05 12:31:54;;;;;;;46.80;23.92;;;;;;;;;;4779197;29;20036;-81
2022/03/05 12:34:39;;;;;;;30.40;16.48;;;;;;;;;;4781025;30;20035;-78
2022/03/05 12:37:30;;;;;;;39.33;20.00;;;;;;;;;;4776295;30;20047;-81
2022/03/05 12:40:15;;;;;;;32.00;16.45;;;;;;;;;;4772704;30;20063;-81
2022/03/05 12:43:03;;;;;;;34.70;19.08;;;;;;;;;;4772312;30;20060;-79
2022/03/05 12:45:50;;;;;;;34.70;17.52;;;;;;;;;;4772251;30;20044;-81
2022/03/05 12:48:35;;;;;;;37.05;19.15;;;;;;;;;;4772586;30;20047;-81
2022/03/05 12:51:21;;;;;;;30.45;17.00;;;;;;;;;;4771897;30;20060;-80
2022/03/05 12:54:08;;;;;;;31.17;17.70;;;;;;;;;;4772333;30;20044;-80
2022/03/05 12:56:55;;;;;;;32.50;17.45;;;;;;;;;;4771856;30;20051;-79
2022/03/05 12:59:40;;;;;;;33.20;19.35;;;;;;;;;;4772003;30;20055;-81
2022/03/05 13:02:26;;;;;;;29.50;17.15;;;;;;;;;;4771884;30;20051;-80
2022/03/05 13:05:16;;;;;;;31.67;16.63;;;;;;;;;;4772161;30;20055;-80
2022/03/05 13:08:01;;;;;;;39.17;19.83;;;;;;;;;;4772304;30;20056;-81
2022/03/05 13:10:49;;;;;;;33.78;17.80;;;;;;;;;;4772563;30;20051;-79
2022/03/05 13:13:38;;;;;;;45.60;23.30;;;;;;;;;;4779550;30;20048;-80
2022/03/05 13:16:39;;;;;;;59.50;29.35;;;;;;;;;;4772127;30;20052;-80
2022/03/05 13:19:25;;;;;;;47.92;24.23;;;;;;;;;;4775571;30;20052;-81
2022/03/05 13:22:10;;;;;;;54.20;25.10;;;;;;;;;;4773865;30;20060;-80
2022/03/05 13:24:56;;;;;;;60.28;31.85;;;;;;;;;;4772821;30;20051;-81
2022/03/05 13:27:42;;;;;;;67.43;28.48;;;;;;;;;;4772343;30;20043;-81
2022/03/05 13:30:27;;;;;;;37.85;19.13;;;;;;;;;;4771360;30;20406;-83
2022/03/05 13:33:37;;;;;;;41.15;22.17;;;;;;;;;;4772685;30;20395;-82
2022/03/05 13:36:26;;;;;;;38.67;20.67;;;;;;;;;;4771707;30;20055;-83
2022/03/05 13:39:17;;;;;;;36.72;18.92;;;;;;;;;;4771804;30;20211;-82
2022/03/05 13:42:10;;;;;;;36.20;18.23;;;;;;;;;;4772359;30;20056;-82
2022/03/05 13:44:59;;;;;;;34.50;19.27;;;;;;;;;;4775541;30;20055;-81
2022/03/05 13:47:47;;;;;;;35.85;18.60;;;;;;;;;;4773119;30;20059;-79
2022/03/05 13:50:38;;;;;;;37.97;19.73;;;;;;;;;;4772164;30;20056;-83
2022/03/05 13:53:24;;;;;;;38.17;21.08;;;;;;;;;;4776773;30;20047;-81
2022/03/05 13:56:10;;;;;;;33.65;18.55;;;;;;;;;;4778348;30;20048;-81
2022/03/05 13:58:57;;;;;;;38.15;19.45;;;;;;;;;;4777921;30;20055;-81
2022/03/05 14:01:45;;;;;;;44.85;23.25;;;;;;;;;;4782890;30;20055;-82
2022/03/05 14:04:35;;;;;;;36.05;18.75;;;;;;;;;;4786185;30;20044;-82
2022/03/05 14:07:23;;;;;;;46.75;23.95;;;;;;;;;;4783529;30;20055;-85
2022/03/05 14:10:22;;;;;;;51.63;23.38;;;;;;;;;;4772180;30;20055;-81
2022/03/05 14:13:26;;;;;;;46.42;21.33;;;;;;;;;;4775129;30;20040;-81
2022/03/05 14:16:11;;;;;;;28.90;16.20;;;;;;;;;;4787611;30;20055;-86
2022/03/05 14:19:30;;;;;;;45.08;23.10;;;;;;;;;;4787712;30;20052;-84
2022/03/05 14:22:22;;;;;;;33.33;17.92;;;;;;;;;;4775573;30;20052;-82
2022/03/05 14:25:47;;;;;;;32.40;19.17;;;;;;;;;;4780626;30;20048;-81
2022/03/05 14:28:37;;;;;;;50.22;25.63;;;;;;;;;;4788505;30;20051;-85
2022/03/05 14:31:25;;;;;;;42.92;21.55;;;;;;;;;;4789741;30;20052;-82
2022/03/05 14:34:23;;;;;;;42.60;20.77;;;;;;;;;;4769492;30;20036;-87
2022/03/05 14:37:09;;;;;;;41.13;20.63;;;;;;;;;;4786472;30;20052;-82
2022/03/05 14:39:54;;;;;;;48.70;21.90;;;;;;;;;;4774350;30;20047;-84
2022/03/05 14:42:40;;;;;;;36.00;19.70;;;;;;;;;;4775558;30;20402;-83
2022/03/05 14:45:26;;;;;;;28.23;17.25;;;;;;;;;;4785848;29;20035;-82
2022/03/05 14:48:13;;;;;;;45.20;23.15;;;;;;;;;;4793766;29;20040;-79
2022/03/05 14:50:57;;;;;;;35.08;17.92;;;;;;;;;;4767981;30;20063;-81
2022/03/05 14:53:49;;;;;;;41.53;20.75;;;;;;;;;;4773952;30;20047;-81
2022/03/05 14:56:37;;;;;;;52.67;25.10;;;;;;;;;;4772308;30;20051;-86
2022/03/05 14:59:22;;;;;;;35.40;17.58;;;;;;;;;;4777251;30;20056;-81
2022/03/05 15:02:08;;;;;;;44.58;22.25;;;;;;;;;;4771806;30;20410;-82
2022/03/05 15:04:54;;;;;;;46.20;22.25;;;;;;;;;;4773050;30;20047;-83
2022/03/05 15:07:40;;;;;;;39.83;16.63;;;;;;;;;;4772613;30;20052;-79
2022/03/05 15:10:25;;;;;;;39.53;18.60;;;;;;;;;;4772290;30;20415;-82
2022/03/05 15:13:10;;;;;;;38.15;20.38;;;;;;;;;;4772493;30;20407;-83
2022/03/05 15:15:56;;;;;;;36.13;19.15;;;;;;;;;;4771805;30;20502;-85
2022/03/05 15:18:42;;;;;;;35.47;18.90;;;;;;;;;;4770873;30;20503;-83
2022/03/05 15:21:27;;;;;;;44.80;21.27;;;;;;;;;;4774927;30;20063;-82
2022/03/05 15:24:13;;;;;;;42.85;20.48;;;;;;;;;;4774736;30;20048;-84
2022/03/05 15:26:59;;;;;;;34.30;19.17;;;;;;;;;;4772266;30;20055;-79
2022/03/05 15:29:46;;;;;;;43.25;22.60;;;;;;;;;;4773249;30;20064;-79
2022/03/05 15:32:31;;;;;;;44.67;22.17;;;;;;;;;;4779324;30;20055;-78
2022/03/05 15:35:17;;;;;;;40.28;20.90;;;;;;;;;;4778308;30;20413;-76
2022/03/05 15:38:02;;;;;;;41.20;22.33;;;;;;;;;;4773884;30;20051;-79
2022/03/05 15:40:48;;;;;;;40.78;20.70;;;;;;;;;;4773684;30;20051;-75
2022/03/05 15:43:34;;;;;;;42.10;19.05;;;;;;;;;;4779335;30;20056;-76
2022/03/05 15:46:19;;;;;;;45.83;20.95;;;;;;;;;;4773245;30;20051;-76
2022/03/05 15:49:07;;;;;;;35.92;20.33;;;;;;;;;;4772917;30;20403;-77
2022/03/05 15:51:52;;;;;;;25.30;14.80;;;;;;;;;;4773157;30;20047;-76
2022/03/05 15:54:38;;;;;;;47.92;21.10;;;;;;;;;;4773274;30;20047;-75
2022/03/05 15:57:24;;;;;;;39.78;20.10;;;;;;;;;;4773125;30;20048;-76
2022/03/05 16:00:10;;;;;;;36.97;18.65;;;;;;;;;;4773009;30;20060;-77
2022/03/05 16:02:56;;;;;;;45.10;22.92;;;;;;;;;;4772805;30;20110;-74
2022/03/05 16:05:41;;;;;;;48.92;23.40;;;;;;;;;;4773006;30;20402;-76
2022/03/05 16:08:27;;;;;;;58.53;25.95;;;;;;;;;;4773030;30;20056;-76
2022/03/05 16:11:12;;;;;;;56.70;24.42;;;;;;;;;;4772627;30;20051;-77
2022/03/05 16:13:59;;;;;;;40.47;20.00;;;;;;;;;;4772980;30;20391;-76
2022/03/05 16:16:44;;;;;;;54.47;27.20;;;;;;;;;;4772216;30;20048;-78